Time;durP1;ratioP1;P1;durP2;ratioP2;P2;SDS_P1;SDS_P2;PMS_P1;PMS_P2;Temp;Humidity;BMP_temperature;BMP_pressure;BME280_temperature;BME280_humidity;BME280_pressure;Samples;Min_cycle;Max_cycle;Signal;HPM_P1;HPM_P2
2024/03/09 00:01:07;;;;;;;17.98;11.12;;;5.50;99.90;;;;;;477021;249;27431;-71
2024/03/09 00:03:07;;;;;;;16.83;10.85;;;5.40;99.90;;;;;;468085;251;27481;-70
2024/03/09 00:05:08;;;;;;;18.02;11.10;;;5.50;99.90;;;;;;476980;249;27950;-71
2024/03/09 00:07:11;;;;;;;15.60;9.77;;;5.40;99.90;;;;;;468084;251;27449;-71
2024/03/09 00:09:11;;;;;;;17.90;10.52;;;5.50;99.90;;;;;;476931;249;27564;-72
2024/03/09 00:11:12;;;;;;;23.87;10.15;;;5.50;99.90;;;;;;468105;251;27482;-71
2024/03/09 00:13:13;;;;;;;14.82;10.13;;;5.50;99.90;;;;;;476972;249;27453;-74
2024/03/09 00:15:15;;;;;;;15.80;10.05;;;5.50;99.90;;;;;;468101;251;27999;-73
2024/03/09 00:17:16;;;;;;;18.90;10.52;;;5.50;99.90;;;;;;477015;249;27545;-71
2024/03/09 00:19:20;;;;;;;18.15;11.93;;;5.50;99.90;;;;;;468089;251;27514;-74
2024/03/09 00:21:18;;;;;;;17.40;10.25;;;5.50;99.90;;;;;;476821;249;27498;-72
2024/03/09 00:23:21;;;;;;;17.55;11.00;;;5.50;99.90;;;;;;468114;251;27452;-71
2024/03/09 00:25:22;;;;;;;16.20;10.98;;;5.50;99.90;;;;;;476930;249;28124;-74
2024/03/09 00:27:26;;;;;;;14.73;9.90;;;5.50;99.90;;;;;;468127;251;27881;-74
2024/03/09 00:29:24;;;;;;;12.18;8.48;;;5.50;99.90;;;;;;476276;249;27439;-72
2024/03/09 00:31:25;;;;;;;12.63;8.85;;;5.50;99.90;;;;;;476938;249;27439;-72
2024/03/09 00:33:26;;;;;;;13.38;9.13;;;5.50;99.90;;;;;;468099;251;27461;-72
2024/03/09 00:35:30;;;;;;;12.88;8.63;;;5.40;99.90;;;;;;477030;249;27445;-72
2024/03/09 00:37:32;;;;;;;11.60;7.97;;;5.40;99.90;;;;;;468104;251;28029;-72
2024/03/09 00:39:37;;;;;;;11.43;8.05;;;5.40;99.90;;;;;;476984;249;27383;-71
2024/03/09 00:41:34;;;;;;;13.62;9.70;;;5.30;99.90;;;;;;467928;254;27561;-74
2024/03/09 00:43:40;;;;;;;11.73;8.38;;;5.30;99.90;;;;;;476976;249;27439;-71
2024/03/09 00:45:36;;;;;;;12.63;8.45;;;5.30;99.90;;;;;;467741;254;27506;-70
2024/03/09 00:47:38;;;;;;;12.10;8.55;;;5.20;99.90;;;;;;476972;249;27482;-71
2024/03/09 00:49:40;;;;;;;13.20;9.05;;;5.20;99.90;;;;;;468093;251;27992;-71
2024/03/09 00:51:40;;;;;;;12.18;7.70;;;5.20;99.90;;;;;;476916;249;27453;-71
2024/03/09 00:53:41;;;;;;;13.15;8.77;;;5.20;99.90;;;;;;468066;251;27447;-71
2024/03/09 00:55:43;;;;;;;12.48;8.73;;;5.20;99.90;;;;;;476873;249;27450;-73
2024/03/09 00:57:53;;;;;;;11.05;7.43;;;5.20;99.90;;;;;;468073;251;27476;-71
2024/03/09 00:59:45;;;;;;;11.57;8.20;;;5.20;99.90;;;;;;475743;249;27438;-71
2024/03/09 01:01:51;;;;;;;12.13;8.70;;;5.20;99.90;;;;;;477006;249;27958;-72
2024/03/09 01:03:55;;;;;;;12.40;9.27;;;5.30;99.90;;;;;;468073;251;27561;-72
2024/03/09 01:05:53;;;;;;;16.50;10.32;;;5.20;99.90;;;;;;476856;249;27991;-73
2024/03/09 01:07:56;;;;;;;15.30;10.10;;;5.30;99.90;;;;;;468107;251;28052;-71
2024/03/09 01:09:56;;;;;;;13.18;9.27;;;5.30;99.90;;;;;;476936;249;27452;-72
2024/03/09 01:11:57;;;;;;;11.38;8.35;;;5.30;99.90;;;;;;468046;251;27434;-71
2024/03/09 01:14:00;;;;;;;12.50;8.52;;;5.30;99.90;;;;;;476897;249;27517;-72
2024/03/09 01:16:00;;;;;;;12.98;8.65;;;5.30;99.90;;;;;;468001;254;27504;-74
2024/03/09 01:18:02;;;;;;;14.75;9.93;;;5.30;99.90;;;;;;476957;249;27903;-71
2024/03/09 01:20:05;;;;;;;14.87;10.15;;;5.30;99.90;;;;;;468094;251;28064;-74
2024/03/09 01:22:05;;;;;;;13.02;9.30;;;5.30;99.90;;;;;;476804;249;27466;-73
2024/03/09 01:24:05;;;;;;;15.18;9.57;;;5.30;99.90;;;;;;468077;251;27564;-74
2024/03/09 01:26:09;;;;;;;11.75;8.23;;;5.20;99.90;;;;;;477003;249;27520;-73
2024/03/09 01:28:07;;;;;;;14.55;10.35;;;5.30;99.90;;;;;;467835;254;27585;-71
2024/03/09 01:30:09;;;;;;;12.32;8.27;;;5.20;99.90;;;;;;476979;249;28009;-71
2024/03/09 01:32:10;;;;;;;10.98;7.93;;;5.20;99.90;;;;;;468155;251;28094;-72
2024/03/09 01:34:15;;;;;;;12.80;9.38;;;5.20;99.90;;;;;;476997;249;27487;-71
2024/03/09 01:36:12;;;;;;;15.75;10.70;;;5.10;99.90;;;;;;468013;251;27833;-72
2024/03/09 01:38:17;;;;;;;16.92;10.63;;;5.10;99.90;;;;;;476897;249;27411;-71
2024/03/09 01:40:15;;;;;;;16.42;10.10;;;5.20;99.90;;;;;;467834;254;27561;-72
2024/03/09 01:42:19;;;;;;;13.48;9.77;;;5.20;99.90;;;;;;477006;249;27961;-73
2024/03/09 01:44:21;;;;;;;16.52;9.55;;;5.20;99.90;;;;;;468006;251;28101;-73
2024/03/09 01:46:21;;;;;;;15.50;10.30;;;5.20;99.90;;;;;;476970;249;27415;-71
2024/03/09 01:48:23;;;;;;;16.55;11.40;;;5.10;99.90;;;;;;468062;251;27614;-72
2024/03/09 01:50:24;;;;;;;12.05;9.50;;;5.20;99.90;;;;;;476989;249;27401;-71
2024/03/09 01:52:31;;;;;;;16.23;10.27;;;5.20;99.90;;;;;;468121;251;27482;-72
2024/03/09 01:54:29;;;;;;;14.20;9.98;;;5.20;99.90;;;;;;476781;249;27528;-72
2024/03/09 01:56:30;;;;;;;13.05;9.85;;;5.20;99.90;;;;;;468120;251;27552;-74
2024/03/09 01:58:33;;;;;;;12.63;9.13;;;5.20;99.90;;;;;;476939;249;27514;-70
2024/03/09 02:00:37;;;;;;;10.93;7.78;;;5.20;99.90;;;;;;468047;251;28069;-74
2024/03/09 02:02:37;;;;;;;13.00;9.20;;;5.10;99.90;;;;;;476889;249;27478;-74
2024/03/09 02:04:38;;;;;;;12.23;8.15;;;5.10;99.90;;;;;;468121;251;28038;-72
2024/03/09 02:06:40;;;;;;;14.43;9.90;;;5.00;99.90;;;;;;476995;249;28015;-71
2024/03/09 02:08:41;;;;;;;14.27;9.75;;;5.00;99.90;;;;;;468051;251;27464;-71
2024/03/09 02:10:42;;;;;;;12.32;8.55;;;5.00;99.90;;;;;;476970;249;27486;-74
2024/03/09 02:12:43;;;;;;;14.57;9.32;;;4.90;99.90;;;;;;468087;251;27515;-70
2024/03/09 02:14:45;;;;;;;17.80;10.95;;;4.90;99.90;;;;;;477009;249;27445;-72
2024/03/09 02:16:49;;;;;;;13.75;8.95;;;4.90;99.90;;;;;;468095;251;28047;-70
2024/03/09 02:18:48;;;;;;;19.02;11.05;;;4.90;99.90;;;;;;476669;249;27945;-71
2024/03/09 02:20:50;;;;;;;17.55;10.00;;;4.90;99.90;;;;;;468067;251;27516;-71
2024/03/09 02:22:50;;;;;;;16.50;10.80;;;4.80;99.90;;;;;;476936;249;27414;-74
2024/03/09 02:24:51;;;;;;;15.00;9.82;;;4.80;99.90;;;;;;468122;251;27917;-71
2024/03/09 02:26:52;;;;;;;13.93;9.60;;;4.90;99.90;;;;;;476949;249;27402;-73
2024/03/09 02:28:54;;;;;;;13.15;9.60;;;4.80;99.90;;;;;;468069;251;27454;-71
2024/03/09 02:30:55;;;;;;;14.52;8.98;;;4.80;99.90;;;;;;476958;249;27925;-71
2024/03/09 02:32:57;;;;;;;14.07;9.30;;;4.70;99.90;;;;;;468079;251;27415;-73
2024/03/09 02:34:58;;;;;;;15.52;11.55;;;4.70;99.90;;;;;;476937;249;27446;-73
2024/03/09 02:36:59;;;;;;;16.30;10.75;;;4.70;99.90;;;;;;468124;251;27544;-73
2024/03/09 02:39:07;;;;;;;14.68;9.70;;;4.80;99.90;;;;;;476945;249;27410;-71
2024/03/09 02:41:01;;;;;;;13.30;8.63;;;4.80;99.90;;;;;;467479;254;27577;-71
2024/03/09 02:43:07;;;;;;;13.85;9.13;;;4.70;99.90;;;;;;476968;249;28784;-71
2024/03/09 02:45:07;;;;;;;12.35;8.70;;;4.70;99.90;;;;;;468061;251;27415;-71
2024/03/09 02:47:10;;;;;;;11.93;8.15;;;4.70;99.90;;;;;;476992;249;27434;-70
2024/03/09 02:49:09;;;;;;;11.48;7.75;;;4.60;99.90;;;;;;468038;251;27550;-71
2024/03/09 02:51:12;;;;;;;16.30;9.23;;;4.60;99.90;;;;;;476967;249;27398;-71
2024/03/09 02:53:12;;;;;;;14.87;9.82;;;4.60;99.90;;;;;;467993;254;28029;-71
2024/03/09 02:55:14;;;;;;;12.57;9.18;;;4.60;99.90;;;;;;477016;249;27998;-72
2024/03/09 02:57:16;;;;;;;14.38;9.60;;;4.70;99.90;;;;;;468004;254;27498;-71
2024/03/09 02:59:16;;;;;;;15.68;10.55;;;4.70;99.90;;;;;;476814;249;27561;-72
2024/03/09 03:01:18;;;;;;;14.10;9.80;;;4.70;99.90;;;;;;468071;251;27424;-71
2024/03/09 03:05:40;;;;;;;12.40;8.20;;;4.70;99.90;;;;;;476491;249;27930;-71
2024/03/09 03:07:39;;;;;;;12.65;8.93;;;4.60;99.90;;;;;;476781;249;27922;-71
2024/03/09 03:09:44;;;;;;;13.65;9.05;;;4.60;99.90;;;;;;468020;251;27554;-71
2024/03/09 03:11:41;;;;;;;12.43;8.30;;;4.60;99.90;;;;;;476705;249;27536;-72
2024/03/09 03:13:43;;;;;;;12.93;8.50;;;4.60;99.90;;;;;;468099;251;27430;-72
2024/03/09 03:15:44;;;;;;;13.95;9.88;;;4.60;99.90;;;;;;476988;249;27464;-72
2024/03/09 03:17:46;;;;;;;10.68;7.80;;;4.50;99.90;;;;;;468064;251;27566;-72
2024/03/09 03:19:46;;;;;;;15.43;10.00;;;4.50;99.90;;;;;;476953;249;27993;-72
2024/03/09 03:21:48;;;;;;;16.67;10.75;;;4.50;99.90;;;;;;468127;251;27970;-73
2024/03/09 03:23:49;;;;;;;18.73;11.40;;;4.50;99.90;;;;;;476992;249;27488;-71
2024/03/09 03:25:50;;;;;;;15.00;9.70;;;4.50;99.90;;;;;;468074;251;27460;-71
2024/03/09 03:27:52;;;;;;;14.95;10.00;;;4.50;99.90;;;;;;476898;249;27411;-74
2024/03/09 03:29:53;;;;;;;12.50;8.63;;;4.50;99.90;;;;;;468139;251;27509;-71
2024/03/09 03:31:58;;;;;;;16.65;10.13;;;4.40;99.90;;;;;;476979;249;27942;-71
2024/03/09 03:33:56;;;;;;;13.98;9.20;;;4.40;99.90;;;;;;467754;254;27874;-71
2024/03/09 03:35:56;;;;;;;18.52;11.80;;;4.40;99.90;;;;;;476948;249;27515;-73
2024/03/09 03:38:01;;;;;;;14.60;9.57;;;4.30;99.90;;;;;;468121;251;27460;-71
2024/03/09 03:40:02;;;;;;;11.23;8.27;;;4.30;99.90;;;;;;477022;249;27438;-72
2024/03/09 03:42:03;;;;;;;13.55;9.23;;;4.20;99.90;;;;;;468142;251;27415;-71
2024/03/09 03:44:04;;;;;;;11.68;8.30;;;4.20;99.90;;;;;;477004;249;27954;-71
2024/03/09 03:46:06;;;;;;;13.05;8.40;;;4.20;99.90;;;;;;468137;251;28310;-71
2024/03/09 03:48:08;;;;;;;12.90;9.15;;;4.20;99.90;;;;;;477016;249;27419;-71
2024/03/09 03:50:08;;;;;;;17.75;11.55;;;4.10;99.90;;;;;;468140;251;27531;-71
2024/03/09 03:52:09;;;;;;;15.77;9.63;;;4.10;99.90;;;;;;477034;249;27398;-74
2024/03/09 03:54:11;;;;;;;18.85;11.85;;;4.10;99.90;;;;;;468040;251;27493;-74
2024/03/09 03:56:12;;;;;;;18.50;10.95;;;4.00;99.90;;;;;;477056;249;27454;-72
2024/03/09 03:58:15;;;;;;;14.25;9.52;;;4.00;99.90;;;;;;468120;251;27946;-71
2024/03/09 04:00:16;;;;;;;15.55;9.63;;;4.00;99.90;;;;;;476942;249;28027;-71
2024/03/09 04:02:16;;;;;;;15.95;9.63;;;4.00;99.90;;;;;;468057;254;27461;-71
2024/03/09 04:04:17;;;;;;;16.08;10.20;;;4.00;99.90;;;;;;477010;249;27421;-71
2024/03/09 04:06:19;;;;;;;15.02;10.68;;;4.00;99.90;;;;;;468169;251;27481;-72
2024/03/09 04:08:19;;;;;;;16.35;10.63;;;4.00;99.90;;;;;;476965;249;27802;-71
2024/03/09 04:10:21;;;;;;;13.30;9.02;;;4.00;99.90;;;;;;468126;251;27564;-72
2024/03/09 04:12:22;;;;;;;12.45;8.85;;;4.00;99.90;;;;;;477011;249;28066;-74
2024/03/09 04:14:26;;;;;;;14.30;9.13;;;4.00;99.90;;;;;;468153;251;27907;-72
2024/03/09 04:16:24;;;;;;;15.77;9.90;;;4.00;99.90;;;;;;476827;249;27461;-75
2024/03/09 04:18:30;;;;;;;15.57;10.52;;;3.90;99.90;;;;;;468080;251;27554;-71
2024/03/09 04:20:33;;;;;;;13.15;9.00;;;4.00;99.90;;;;;;476938;249;27411;-71
2024/03/09 04:22:32;;;;;;;15.65;10.38;;;3.90;99.90;;;;;;467897;254;27532;-71
2024/03/09 04:24:32;;;;;;;16.17;10.75;;;3.90;99.90;;;;;;477010;249;27812;-72
2024/03/09 04:26:34;;;;;;;15.65;10.70;;;3.90;99.90;;;;;;468126;251;27426;-72
2024/03/09 04:28:35;;;;;;;12.75;9.20;;;3.90;99.90;;;;;;476922;249;27557;-72
2024/03/09 04:30:37;;;;;;;16.48;9.93;;;3.80;99.90;;;;;;468076;251;27917;-72
2024/03/09 04:32:38;;;;;;;15.18;9.68;;;3.80;99.90;;;;;;476989;249;27514;-72
2024/03/09 04:34:40;;;;;;;18.30;11.20;;;3.80;99.90;;;;;;468124;251;27469;-72
2024/03/09 04:36:40;;;;;;;14.95;10.00;;;3.80;99.90;;;;;;476947;249;27490;-72
2024/03/09 04:38:41;;;;;;;12.25;8.30;;;3.80;99.90;;;;;;468040;251;27466;-72
2024/03/09 04:40:43;;;;;;;15.57;9.10;;;3.80;99.90;;;;;;477006;249;27506;-73
2024/03/09 04:42:46;;;;;;;12.37;8.48;;;3.80;99.90;;;;;;468102;251;27465;-71
2024/03/09 04:44:45;;;;;;;15.43;10.27;;;3.80;99.90;;;;;;476855;249;27941;-72
2024/03/09 04:46:47;;;;;;;18.87;10.98;;;3.80;99.90;;;;;;468110;251;27950;-72
2024/03/09 04:48:47;;;;;;;15.13;10.55;;;3.80;99.90;;;;;;476910;249;27561;-72
2024/03/09 04:50:49;;;;;;;17.37;11.07;;;3.80;99.90;;;;;;468125;251;27542;-73
2024/03/09 04:52:50;;;;;;;17.10;10.60;;;3.80;99.90;;;;;;476967;249;27563;-71
2024/03/09 04:54:51;;;;;;;13.48;9.60;;;3.80;99.90;;;;;;468082;251;27462;-70
2024/03/09 04:56:52;;;;;;;14.75;10.10;;;3.70;99.90;;;;;;476937;249;27414;-71
2024/03/09 04:58:54;;;;;;;14.68;9.40;;;3.70;99.90;;;;;;468063;251;27922;-71
2024/03/09 05:00:55;;;;;;;14.85;9.32;;;3.70;99.90;;;;;;477005;249;28021;-72
2024/03/09 05:02:56;;;;;;;15.38;9.40;;;3.70;99.90;;;;;;468081;253;27454;-71
2024/03/09 05:04:57;;;;;;;19.23;9.73;;;3.80;99.90;;;;;;476935;249;27481;-71
2024/03/09 05:06:59;;;;;;;14.15;9.40;;;3.80;99.90;;;;;;468108;251;27431;-72
2024/03/09 05:09:00;;;;;;;10.32;7.65;;;4.00;99.90;;;;;;476948;249;27430;-72
2024/03/09 05:11:01;;;;;;;18.12;10.82;;;3.80;99.90;;;;;;468146;251;27537;-72
2024/03/09 05:13:02;;;;;;;12.93;9.77;;;3.80;99.90;;;;;;476968;249;27509;-71
2024/03/09 05:15:04;;;;;;;13.75;8.77;;;3.70;99.90;;;;;;468069;251;27955;-71
2024/03/09 05:17:05;;;;;;;14.23;10.77;;;3.70;99.90;;;;;;476995;249;29097;-73
2024/03/09 05:19:07;;;;;;;16.10;10.68;;;3.70;99.90;;;;;;468063;253;27458;-72
2024/03/09 05:21:08;;;;;;;13.45;8.82;;;3.70;99.90;;;;;;476978;249;27529;-72
2024/03/09 05:23:10;;;;;;;10.32;7.68;;;3.60;99.90;;;;;;468053;251;27418;-71
2024/03/09 05:25:13;;;;;;;14.55;9.82;;;3.60;99.90;;;;;;476954;249;27517;-71
2024/03/09 05:27:14;;;;;;;19.60;10.02;;;3.60;99.90;;;;;;468114;251;27493;-71
2024/03/09 05:29:15;;;;;;;15.52;9.20;;;3.60;99.90;;;;;;476957;249;27990;-72
2024/03/09 05:31:17;;;;;;;12.80;9.25;;;3.60;99.90;;;;;;468097;251;27974;-72
2024/03/09 05:33:18;;;;;;;13.38;8.70;;;3.60;99.90;;;;;;476932;249;28025;-72
2024/03/09 05:35:20;;;;;;;12.25;8.73;;;3.60;99.90;;;;;;468090;251;27445;-71
2024/03/09 05:37:20;;;;;;;10.52;8.57;;;3.60;99.90;;;;;;476960;249;27391;-72
2024/03/09 05:39:22;;;;;;;15.40;10.38;;;3.60;99.90;;;;;;468059;251;27486;-72
2024/03/09 05:41:23;;;;;;;11.38;9.07;;;3.60;99.90;;;;;;476938;249;27422;-71
2024/03/09 05:43:24;;;;;;;12.93;9.40;;;3.50;99.90;;;;;;468049;251;27489;-72
2024/03/09 05:45:25;;;;;;;14.45;9.75;;;3.60;99.90;;;;;;477024;249;27470;-73
2024/03/09 05:47:27;;;;;;;13.13;9.13;;;3.60;99.90;;;;;;468080;251;27938;-72
2024/03/09 05:49:28;;;;;;;17.27;11.45;;;3.50;99.90;;;;;;476953;249;27942;-72
2024/03/09 05:51:31;;;;;;;15.02;9.05;;;3.50;99.90;;;;;;468043;251;27516;-71
2024/03/09 05:53:30;;;;;;;13.18;9.27;;;3.40;99.90;;;;;;476889;249;27510;-72
2024/03/09 05:55:32;;;;;;;15.23;9.82;;;3.50;99.90;;;;;;468119;251;27571;-73
2024/03/09 05:57:34;;;;;;;14.50;10.52;;;3.50;99.90;;;;;;476920;249;27508;-72
2024/03/09 05:59:34;;;;;;;15.82;9.45;;;3.50;99.90;;;;;;468063;251;27481;-71
2024/03/09 06:01:35;;;;;;;14.43;10.35;;;3.40;99.90;;;;;;476952;249;27414;-71
2024/03/09 06:03:41;;;;;;;15.18;10.27;;;3.40;99.90;;;;;;468121;251;27934;-71
2024/03/09 06:05:38;;;;;;;14.30;9.88;;;3.40;99.90;;;;;;476721;249;28036;-72
2024/03/09 06:07:39;;;;;;;11.95;8.63;;;3.40;99.90;;;;;;467978;254;27502;-72
2024/03/09 06:09:40;;;;;;;15.30;10.00;;;3.40;99.90;;;;;;476953;249;27438;-72
2024/03/09 06:11:42;;;;;;;16.75;10.30;;;3.40;99.90;;;;;;468112;251;27568;-73
2024/03/09 06:13:43;;;;;;;17.70;10.70;;;3.40;99.90;;;;;;476960;249;27498;-72
2024/03/09 06:15:45;;;;;;;17.95;12.05;;;3.40;99.90;;;;;;468065;251;27565;-71
2024/03/09 06:17:47;;;;;;;20.85;13.05;;;3.40;99.90;;;;;;476864;249;27525;-71
2024/03/09 06:19:48;;;;;;;21.85;13.40;;;3.40;99.90;;;;;;468042;251;28002;-71
2024/03/09 06:21:50;;;;;;;21.45;12.85;;;3.50;99.90;;;;;;476944;249;27936;-72
2024/03/09 06:23:49;;;;;;;17.98;11.93;;;3.50;99.90;;;;;;468025;251;27502;-71
2024/03/09 06:25:50;;;;;;;18.52;11.82;;;3.50;99.90;;;;;;476958;249;27458;-72
2024/03/09 06:27:52;;;;;;;17.20;11.10;;;3.50;99.90;;;;;;468012;251;27410;-71
2024/03/09 06:29:56;;;;;;;18.48;10.07;;;3.40;99.90;;;;;;476991;249;27414;-71
2024/03/09 06:31:54;;;;;;;17.90;10.63;;;3.30;99.90;;;;;;467920;254;27453;-72
2024/03/09 06:33:56;;;;;;;17.25;10.80;;;3.30;99.90;;;;;;476950;249;27955;-71
2024/03/09 06:35:57;;;;;;;15.70;9.60;;;3.30;99.90;;;;;;468060;251;28029;-71
2024/03/09 06:38:01;;;;;;;17.25;10.98;;;3.30;99.90;;;;;;476944;249;29106;-73
2024/03/09 06:40:02;;;;;;;22.13;12.52;;;3.40;99.90;;;;;;467884;251;27939;-73
2024/03/09 06:42:03;;;;;;;15.85;9.75;;;3.50;99.90;;;;;;476943;249;27883;-71
2024/03/09 06:44:08;;;;;;;16.48;10.90;;;3.50;99.90;;;;;;468000;251;27486;-72
2024/03/09 06:46:08;;;;;;;14.32;10.02;;;3.50;99.90;;;;;;476704;249;27494;-71
2024/03/09 06:48:07;;;;;;;18.62;11.05;;;3.60;99.90;;;;;;467911;254;27533;-72
2024/03/09 06:50:09;;;;;;;12.07;8.57;;;3.60;99.90;;;;;;476923;249;27549;-72
2024/03/09 06:52:12;;;;;;;13.62;9.05;;;3.40;99.90;;;;;;468056;251;27419;-72
2024/03/09 06:54:11;;;;;;;13.60;8.85;;;3.30;99.90;;;;;;476805;249;27477;-72
2024/03/09 06:56:12;;;;;;;16.02;10.95;;;3.30;99.90;;;;;;468059;251;28092;-71
2024/03/09 06:58:13;;;;;;;12.05;8.15;;;3.30;99.90;;;;;;476914;249;27942;-72
2024/03/09 07:00:15;;;;;;;11.48;8.35;;;3.40;99.90;;;;;;468070;251;27476;-71
2024/03/09 07:02:17;;;;;;;19.67;11.05;;;3.50;99.90;;;;;;476937;249;27469;-71
2024/03/09 07:04:18;;;;;;;20.05;13.10;;;3.50;99.90;;;;;;467983;251;27496;-72
2024/03/09 07:06:18;;;;;;;16.02;10.95;;;3.60;99.90;;;;;;476928;249;27904;-73
2024/03/09 07:08:21;;;;;;;18.23;10.27;;;3.60;99.90;;;;;;468038;251;27423;-71
2024/03/09 07:10:21;;;;;;;15.80;10.73;;;3.70;99.90;;;;;;476922;249;27954;-72
2024/03/09 07:12:22;;;;;;;13.23;9.50;;;3.70;99.90;;;;;;468086;251;27887;-71
2024/03/09 07:14:24;;;;;;;13.38;10.27;;;3.60;99.90;;;;;;476994;249;27423;-71
2024/03/09 07:16:25;;;;;;;14.55;10.02;;;3.60;99.90;;;;;;468148;251;27545;-72
2024/03/09 07:18:30;;;;;;;14.75;9.50;;;3.70;99.90;;;;;;476941;249;27486;-71
2024/03/09 07:20:33;;;;;;;16.67;10.52;;;3.70;99.90;;;;;;467769;254;27492;-71
2024/03/09 07:22:31;;;;;;;17.62;11.07;;;3.70;99.90;;;;;;476815;249;27476;-72
2024/03/09 07:24:33;;;;;;;20.23;12.30;;;3.70;99.90;;;;;;468137;251;27552;-73
2024/03/09 07:26:35;;;;;;;20.20;11.68;;;3.70;99.90;;;;;;476994;249;27417;-72
2024/03/09 07:28:35;;;;;;;25.20;14.98;;;3.90;99.90;;;;;;468032;251;27493;-73
2024/03/09 07:30:36;;;;;;;22.05;14.07;;;4.10;99.90;;;;;;476968;249;27414;-71
2024/03/09 07:32:38;;;;;;;22.50;15.13;;;4.20;99.90;;;;;;467974;254;27911;-71
2024/03/09 07:34:39;;;;;;;22.15;14.38;;;4.40;99.90;;;;;;476952;249;27933;-71
2024/03/09 07:36:40;;;;;;;22.95;14.02;;;4.50;99.90;;;;;;468070;251;27433;-71
2024/03/09 07:38:42;;;;;;;28.42;15.55;;;4.60;99.90;;;;;;476933;249;27528;-71
2024/03/09 07:40:43;;;;;;;20.10;13.27;;;4.70;99.90;;;;;;468131;251;27435;-70
2024/03/09 07:42:44;;;;;;;23.83;14.73;;;5.00;99.90;;;;;;477013;249;27508;-74
2024/03/09 07:44:45;;;;;;;22.80;14.50;;;5.00;99.90;;;;;;468120;251;27597;-72
2024/03/09 07:46:46;;;;;;;26.55;15.63;;;5.20;99.90;;;;;;477000;249;27871;-74
2024/03/09 07:48:50;;;;;;;26.48;15.35;;;5.40;99.90;;;;;;468049;251;28022;-74
2024/03/09 07:50:49;;;;;;;26.50;15.07;;;5.50;99.90;;;;;;476887;249;27549;-73
2024/03/09 07:52:50;;;;;;;23.48;14.40;;;5.50;99.90;;;;;;468154;251;27430;-73
2024/03/09 07:54:52;;;;;;;25.17;15.02;;;5.60;99.90;;;;;;476990;249;27469;-72
2024/03/09 07:56:53;;;;;;;21.70;13.45;;;5.60;99.90;;;;;;468099;251;27423;-71
2024/03/09 07:58:55;;;;;;;21.27;13.70;;;5.60;99.90;;;;;;477012;249;27913;-71
2024/03/09 08:00:55;;;;;;;24.73;14.52;;;5.60;99.90;;;;;;468134;251;27541;-74
2024/03/09 08:02:59;;;;;;;23.17;14.07;;;5.70;99.90;;;;;;477020;249;27409;-72
2024/03/09 08:05:02;;;;;;;20.83;13.77;;;5.80;99.90;;;;;;467970;254;27476;-72
2024/03/09 08:07:00;;;;;;;27.58;17.20;;;5.80;99.90;;;;;;476798;249;27506;-71
2024/03/09 08:09:00;;;;;;;21.20;13.95;;;5.90;99.90;;;;;;468075;251;27974;-71
2024/03/09 08:11:02;;;;;;;22.62;14.60;;;6.00;99.90;;;;;;477022;249;27462;-72
2024/03/09 08:13:03;;;;;;;25.75;15.70;;;6.10;99.90;;;;;;468129;251;27435;-74
2024/03/09 08:15:04;;;;;;;19.98;13.18;;;6.10;99.90;;;;;;477012;249;27480;-71
2024/03/09 08:17:07;;;;;;;24.25;13.93;;;6.10;99.90;;;;;;468181;251;27470;-73
2024/03/09 08:19:07;;;;;;;25.70;14.68;;;6.10;99.90;;;;;;476900;249;27855;-71
2024/03/09 08:21:08;;;;;;;25.12;14.32;;;6.20;99.90;;;;;;468133;251;27466;-74
2024/03/09 08:23:10;;;;;;;19.73;12.98;;;6.30;99.90;;;;;;476980;249;27411;-71
2024/03/09 08:25:15;;;;;;;22.05;14.18;;;6.30;99.90;;;;;;468130;251;27419;-71
2024/03/09 08:27:12;;;;;;;24.27;14.48;;;6.20;99.90;;;;;;468279;254;27534;-72
2024/03/09 08:29:16;;;;;;;19.10;13.35;;;6.30;99.90;;;;;;476951;249;27996;-71
2024/03/09 08:31:17;;;;;;;20.98;13.60;;;6.30;99.90;;;;;;468122;251;27426;-72
2024/03/09 08:33:19;;;;;;;21.08;12.90;;;6.30;99.90;;;;;;476988;249;27466;-72
2024/03/09 08:35:19;;;;;;;21.33;13.98;;;6.40;99.90;;;;;;468089;251;27490;-73
2024/03/09 08:37:21;;;;;;;17.83;12.43;;;6.40;99.90;;;;;;477068;249;27398;-74
2024/03/09 08:39:25;;;;;;;20.42;13.68;;;6.50;99.90;;;;;;468151;251;28080;-72
2024/03/09 08:41:23;;;;;;;20.77;12.82;;;6.70;99.90;;;;;;476851;249;27415;-71
2024/03/09 08:43:26;;;;;;;18.25;12.30;;;6.90;99.90;;;;;;468113;251;27461;-71
2024/03/09 08:45:29;;;;;;;21.23;12.20;;;7.00;99.90;;;;;;476961;249;27820;-72
2024/03/09 08:47:28;;;;;;;21.02;13.45;;;7.10;99.90;;;;;;467822;254;28890;-71
2024/03/09 08:49:28;;;;;;;17.83;11.60;;;7.20;99.90;;;;;;476966;249;27916;-74
2024/03/09 08:51:30;;;;;;;19.07;12.30;;;7.30;99.90;;;;;;468135;251;28783;-74
2024/03/09 08:53:31;;;;;;;20.30;12.33;;;7.40;99.90;;;;;;477024;249;28177;-74
2024/03/09 08:55:35;;;;;;;18.10;12.20;;;7.60;99.90;;;;;;468144;251;27580;-74
2024/03/09 08:57:36;;;;;;;19.58;12.20;;;7.50;99.90;;;;;;476938;249;28629;-72
2024/03/09 08:59:38;;;;;;;18.23;12.03;;;7.70;99.90;;;;;;468093;251;27469;-72
2024/03/09 09:01:39;;;;;;;17.20;11.40;;;7.70;99.90;;;;;;476964;249;27956;-74
2024/03/09 09:03:40;;;;;;;16.20;11.13;;;7.70;99.90;;;;;;468123;251;28080;-72
2024/03/09 09:05:42;;;;;;;20.40;11.60;;;7.70;99.90;;;;;;476996;249;27907;-71
2024/03/09 09:07:43;;;;;;;15.53;11.90;;;7.60;99.90;;;;;;468060;251;28519;-73
2024/03/09 09:09:44;;;;;;;18.00;12.00;;;7.60;99.90;;;;;;476963;249;28342;-74
2024/03/09 09:11:46;;;;;;;17.20;11.73;;;7.70;99.90;;;;;;468137;251;27803;-74
2024/03/09 09:13:47;;;;;;;16.10;11.27;;;7.80;99.90;;;;;;476857;249;27850;-72
2024/03/09 09:15:48;;;;;;;17.70;11.47;;;7.70;99.90;;;;;;468132;251;28141;-73
2024/03/09 09:17:49;;;;;;;19.57;10.93;;;7.70;99.90;;;;;;476930;249;27874;-73
2024/03/09 09:19:50;;;;;;;18.00;11.13;;;7.80;99.90;;;;;;468141;251;27957;-74
2024/03/09 09:21:51;;;;;;;20.60;10.57;;;7.90;99.90;;;;;;477024;249;28258;-74
2024/03/09 09:23:53;;;;;;;15.53;11.30;;;8.00;99.90;;;;;;468123;251;28502;-74
2024/03/09 09:25:54;;;;;;;15.40;11.17;;;8.00;99.90;;;;;;476978;249;27901;-74
2024/03/09 09:27:56;;;;;;;17.20;11.30;;;8.20;99.90;;;;;;468049;253;27934;-74
2024/03/09 09:29:56;;;;;;;14.03;9.87;;;8.30;99.90;;;;;;477015;249;27979;-73
2024/03/09 09:32:00;;;;;;;17.17;11.37;;;8.30;99.90;;;;;;468103;251;27928;-74
2024/03/09 09:33:59;;;;;;;17.53;11.50;;;8.50;99.90;;;;;;476863;249;27945;-74
2024/03/09 09:36:01;;;;;;;20.40;11.37;;;8.50;99.90;;;;;;468062;251;27886;-73
2024/03/09 09:38:01;;;;;;;17.13;10.20;;;8.50;99.90;;;;;;476979;249;27855;-73
2024/03/09 09:40:03;;;;;;;18.03;10.37;;;8.60;99.90;;;;;;468118;254;28441;-73
2024/03/09 09:42:04;;;;;;;16.90;10.27;;;8.60;99.90;;;;;;477016;249;28181;-73
2024/03/09 09:44:08;;;;;;;14.97;9.67;;;8.60;99.90;;;;;;468099;251;28207;-74
2024/03/09 09:46:06;;;;;;;18.23;8.67;;;8.80;99.90;;;;;;476780;249;27687;-74
2024/03/09 09:48:10;;;;;;;14.97;9.53;;;9.00;99.90;;;;;;468107;253;27686;-75
2024/03/09 09:50:09;;;;;;;14.93;9.60;;;9.00;99.90;;;;;;476851;249;27829;-75
2024/03/09 09:52:10;;;;;;;19.60;10.20;;;8.90;99.90;;;;;;468116;251;27961;-74
2024/03/09 09:54:11;;;;;;;13.97;9.80;;;9.00;99.90;;;;;;476962;249;27861;-74
2024/03/09 09:56:14;;;;;;;11.53;8.53;;;9.10;99.90;;;;;;468137;251;27861;-75
2024/03/09 09:58:14;;;;;;;13.43;9.60;;;9.30;99.90;;;;;;476932;249;28357;-73
2024/03/09 10:00:16;;;;;;;13.83;8.90;;;9.50;99.90;;;;;;468122;253;28569;-75
2024/03/09 10:02:20;;;;;;;13.27;9.03;;;9.70;99.90;;;;;;476945;249;28366;-73
2024/03/09 10:04:18;;;;;;;15.30;9.27;;;9.60;99.90;;;;;;467843;254;27951;-73
2024/03/09 10:06:22;;;;;;;13.20;10.03;;;9.70;99.90;;;;;;477014;249;27564;-76
2024/03/09 10:08:20;;;;;;;13.50;9.23;;;9.70;99.90;;;;;;467853;254;27774;-74
2024/03/09 10:10:21;;;;;;;12.83;9.20;;;9.60;99.90;;;;;;476979;249;27950;-74
2024/03/09 10:12:23;;;;;;;13.73;8.90;;;9.60;99.90;;;;;;468087;253;27556;-73
2024/03/09 10:14:24;;;;;;;14.40;8.77;;;9.60;99.90;;;;;;476992;249;27968;-74
2024/03/09 10:16:27;;;;;;;14.27;9.30;;;9.70;99.90;;;;;;468092;251;27986;-75
2024/03/09 10:18:27;;;;;;;12.47;7.93;;;9.90;99.90;;;;;;476863;249;27876;-74
2024/03/09 10:20:29;;;;;;;12.73;8.67;;;10.00;99.90;;;;;;467994;254;28531;-74
2024/03/09 10:22:29;;;;;;;13.60;8.17;;;10.10;99.90;;;;;;476878;249;29114;-73
2024/03/09 10:24:30;;;;;;;11.00;7.23;;;10.10;99.90;;;;;;468115;251;28541;-74
2024/03/09 10:26:32;;;;;;;13.73;7.97;;;10.00;99.90;;;;;;476985;249;28017;-75
2024/03/09 10:28:33;;;;;;;10.73;7.43;;;10.00;99.90;;;;;;468057;253;27909;-73